Time;durP1;ratioP1;P1;durP2;ratioP2;P2;SDS_P1;SDS_P2;PMS_P1;PMS_P2;Temp;Humidity;BMP_temperature;BMP_pressure;BME280_temperature;BME280_humidity;BME280_pressure;Samples;Min_cycle;Max_cycle;Signal;HPM_P1;HPM_P2
2023/07/02 00:02:15;;;;;;;;;;;;;;;16.84;95.19;100725.38;5081445;28;19927;-44
2023/07/02 00:04:41;;;;;;;;;;;;;;;16.82;95.62;100729.72;5104924;28;19916;-43
2023/07/02 00:07:06;;;;;;;;;;;;;;;16.81;94.88;100723.66;5109134;28;19923;-45
2023/07/02 00:09:31;;;;;;;;;;;;;;;16.79;95.90;100719.31;5105621;28;19920;-44
2023/07/02 00:11:57;;;;;;;;;;;;;;;16.79;96.11;100724.50;5105040;28;19928;-45
2023/07/02 00:14:22;;;;;;;;;;;;;;;16.78;95.73;100725.38;5107164;28;19916;-46
2023/07/02 00:16:47;;;;;;;;;;;;;;;16.75;95.41;100721.06;5108656;28;20393;-48
2023/07/02 00:19:15;;;;;;;;;;;;;;;16.75;95.12;100712.41;5101020;28;19951;-50
2023/07/02 00:21:41;;;;;;;;;;;;;;;16.73;96.04;100694.22;5100649;28;19920;-46
2023/07/02 00:24:09;;;;;;;;;;;;;;;16.80;93.66;100672.56;5096729;28;19934;-47
2023/07/02 00:26:35;;;;;;;;;;;;;;;16.70;94.43;100682.94;5098807;28;19972;-48
2023/07/02 00:29:00;;;;;;;;;;;;;;;16.66;94.86;100699.38;5094598;28;20560;-44
2023/07/02 00:31:25;;;;;;;;;;;;;;;16.58;96.54;100713.22;5096805;28;19924;-44
2023/07/02 00:33:50;;;;;;;;;;;;;;;16.55;96.35;100717.53;5094596;28;19916;-46
2023/07/02 00:36:16;;;;;;;;;;;;;;;16.54;96.11;100728.78;5097665;28;19916;-45
2023/07/02 00:38:42;;;;;;;;;;;;;;;16.51;95.77;100731.38;5100039;28;19920;-48
2023/07/02 00:41:07;;;;;;;;;;;;;;;16.47;96.24;100729.63;5103251;28;19941;-45
2023/07/02 00:43:33;;;;;;;;;;;;;;;16.44;96.30;100727.03;5102065;28;20313;-47
2023/07/02 00:45:58;;;;;;;;;;;;;;;16.41;97.15;100733.09;5100630;28;19968;-46
2023/07/02 00:48:23;;;;;;;;;;;;;;;16.37;97.02;100736.53;5099089;28;19977;-46
2023/07/02 00:50:48;;;;;;;;;;;;;;;16.36;97.01;100737.38;5098341;28;20064;-47
2023/07/02 00:53:14;;;;;;;;;;;;;;;16.41;95.86;100740.00;5102063;28;19965;-43
2023/07/02 00:55:39;;;;;;;;;;;;;;;16.39;96.43;100736.56;5104398;28;20390;-45
2023/07/02 00:58:04;;;;;;;;;;;;;;;16.41;96.70;100740.00;5100838;28;19927;-47
2023/07/02 01:00:30;;;;;;;;;;;;;;;16.44;96.70;100740.88;5102488;28;20011;-46
2023/07/02 01:02:58;;;;;;;;;;;;;;;16.45;96.01;100742.63;5101909;28;19927;-45
2023/07/02 01:05:35;;;;;;;;;;;;;;;16.44;96.84;100746.09;5101028;28;19930;-43
2023/07/02 01:08:00;;;;;;;;;;;;;;;16.44;96.51;100738.28;5099810;28;19920;-45
2023/07/02 01:10:26;;;;;;;;;;;;;;;16.44;95.86;100746.09;5100536;28;19916;-43
2023/07/02 01:12:52;;;;;;;;;;;;;;;16.45;96.10;100749.53;5099651;28;19939;-45
2023/07/02 01:15:17;;;;;;;;;;;;;;;16.43;95.97;100754.69;5097550;28;19920;-44
2023/07/02 01:17:42;;;;;;;;;;;;;;;16.41;96.91;100740.88;5096026;28;20302;-43
2023/07/02 01:20:09;;;;;;;;;;;;;;;16.40;97.26;100748.66;5097982;28;20317;-44
2023/07/02 01:22:35;;;;;;;;;;;;;;;16.39;97.08;100747.78;5097851;28;19920;-45
2023/07/02 01:25:00;;;;;;;;;;;;;;;16.33;97.65;100750.38;5094479;28;20012;-46
2023/07/02 01:27:29;;;;;;;;;;;;;;;16.29;96.80;100762.47;5099338;28;20386;-44
2023/07/02 01:29:54;;;;;;;;;;;;;;;16.27;96.91;100759.00;5098927;28;20019;-43
2023/07/02 01:32:20;;;;;;;;;;;;;;;16.23;97.96;100757.25;5097793;28;20031;-43
2023/07/02 01:34:48;;;;;;;;;;;;;;;16.22;98.01;100762.44;5100541;28;19915;-45
2023/07/02 01:37:14;;;;;;;;;;;;;;;16.16;98.47;100755.50;5101341;28;19920;-45
2023/07/02 01:39:39;;;;;;;;;;;;;;;16.17;97.80;100769.34;5078130;28;19934;-44
2023/07/02 01:42:11;;;;;;;;;;;;;;;16.14;97.60;100767.63;5101010;28;19995;-45
2023/07/02 01:44:37;;;;;;;;;;;;;;;16.12;98.49;100763.25;5108931;28;20010;-45
2023/07/02 01:47:02;;;;;;;;;;;;;;;16.09;97.58;100767.59;5107594;28;20753;-45
2023/07/02 01:49:28;;;;;;;;;;;;;;;16.06;99.16;100759.78;5107809;28;19930;-46
2023/07/02 01:51:54;;;;;;;;;;;;;;;16.06;99.06;100769.28;5104486;28;19924;-44
2023/07/02 01:54:20;;;;;;;;;;;;;;;16.01;98.10;100769.25;5101076;28;19950;-44
2023/07/02 01:56:45;;;;;;;;;;;;;;;15.99;98.26;100771.00;5101234;28;19954;-45
2023/07/02 01:59:11;;;;;;;;;;;;;;;15.94;98.78;100766.63;5094676;28;19977;-44
2023/07/02 02:01:40;;;;;;;;;;;;;;;15.91;98.44;100770.09;5101556;28;19916;-43
2023/07/02 02:04:05;;;;;;;;;;;;;;;15.88;99.35;100771.81;5098789;28;20065;-45
2023/07/02 02:06:30;;;;;;;;;;;;;;;15.87;99.28;100764.88;5101541;28;19975;-46
2023/07/02 02:08:56;;;;;;;;;;;;;;;15.87;98.60;100778.72;5086625;28;20370;-47
2023/07/02 02:11:21;;;;;;;;;;;;;;;15.88;98.68;100775.25;5103084;28;20393;-44
2023/07/02 02:13:46;;;;;;;;;;;;;;;15.90;98.50;100772.69;5084050;28;19916;-43
2023/07/02 02:16:11;;;;;;;;;;;;;;;15.90;97.97;100767.50;5099909;28;19920;-44
2023/07/02 02:18:37;;;;;;;;;;;;;;;15.89;98.20;100776.13;5097130;28;20002;-43
2023/07/02 02:21:02;;;;;;;;;;;;;;;15.86;97.98;100771.81;5083867;28;19939;-44
2023/07/02 02:23:27;;;;;;;;;;;;;;;15.83;98.14;100766.59;5099017;28;19916;-43
2023/07/02 02:25:52;;;;;;;;;;;;;;;15.79;97.53;100772.63;5083460;28;20370;-44
2023/07/02 02:28:18;;;;;;;;;;;;;;;15.74;98.26;100782.97;5082504;28;20015;-44
2023/07/02 02:30:43;;;;;;;;;;;;;;;15.70;99.13;100782.94;5100774;28;19970;-47
2023/07/02 02:33:08;;;;;;;;;;;;;;;15.68;98.87;100782.06;5100819;28;19980;-44
2023/07/02 02:35:33;;;;;;;;;;;;;;;15.64;99.21;100790.69;5102642;28;19920;-43
2023/07/02 02:38:02;;;;;;;;;;;;;;;15.60;98.92;100788.91;5109247;28;19916;-45
2023/07/02 02:40:27;;;;;;;;;;;;;;;15.56;99.67;100788.00;5086540;28;19943;-44
2023/07/02 02:42:52;;;;;;;;;;;;;;;15.52;99.38;100792.28;5106704;28;19966;-45
2023/07/02 02:45:17;;;;;;;;;;;;;;;15.49;99.26;100792.28;5104961;28;20378;-47
2023/07/02 02:47:43;;;;;;;;;;;;;;;15.47;99.65;100798.28;5098017;28;20352;-45
2023/07/02 02:50:09;;;;;;;;;;;;;;;15.43;100.00;100792.25;5098143;28;19980;-45
2023/07/02 02:52:34;;;;;;;;;;;;;;;15.40;100.00;100792.22;5097594;28;19920;-47
2023/07/02 02:55:00;;;;;;;;;;;;;;;15.37;100.00;100794.78;5098259;28;19933;-47
2023/07/02 02:57:25;;;;;;;;;;;;;;;15.35;100.00;100799.09;5097911;28;19916;-45
2023/07/02 02:59:50;;;;;;;;;;;;;;;15.33;100.00;100805.13;5098839;28;19916;-45
2023/07/02 03:02:15;;;;;;;;;;;;;;;15.29;100.00;100810.28;5094734;28;20366;-45
2023/07/02 03:04:44;;;;;;;;;;;;;;;15.28;100.00;100805.94;5092736;28;20384;-43
2023/07/02 03:07:09;;;;;;;;;;;;;;;15.28;100.00;100807.66;5093409;28;19923;-45
2023/07/02 03:09:34;;;;;;;;;;;;;;;15.26;99.59;100810.25;5093238;28;19920;-47
2023/07/02 03:11:59;;;;;;;;;;;;;;;15.23;98.57;100815.41;5082429;28;20323;-45
2023/07/02 03:14:25;;;;;;;;;;;;;;;15.20;97.39;100817.09;5106155;28;19951;-44
2023/07/02 03:16:50;;;;;;;;;;;;;;;15.17;96.80;100820.56;5107774;28;19922;-45
2023/07/02 03:19:15;;;;;;;;;;;;;;;15.16;95.96;100823.09;5104035;28;19916;-44
2023/07/02 03:21:44;;;;;;;;;;;;;;;15.13;95.40;100821.38;5105098;28;20368;-44
2023/07/02 03:24:13;;;;;;;;;;;;;;;15.10;94.72;100815.28;5105103;28;20447;-45
2023/07/02 03:26:38;;;;;;;;;;;;;;;15.06;94.31;100822.16;5100475;28;19916;-47
2023/07/02 03:29:04;;;;;;;;;;;;;;;15.02;93.32;100829.03;5108074;28;20326;-46
2023/07/02 03:31:29;;;;;;;;;;;;;;;14.96;92.81;100830.69;5105690;28;19926;-45
2023/07/02 03:33:54;;;;;;;;;;;;;;;14.93;92.58;100844.50;5106546;28;19924;-46
2023/07/02 03:36:19;;;;;;;;;;;;;;;14.94;91.96;100840.19;5111865;28;20004;-45
2023/07/02 03:38:45;;;;;;;;;;;;;;;14.93;90.91;100841.91;5112116;28;19916;-44
2023/07/02 03:41:10;;;;;;;;;;;;;;;14.95;91.27;100845.38;5108878;28;19924;-46
2023/07/02 03:43:35;;;;;;;;;;;;;;;14.95;89.69;100850.53;5104720;28;19916;-45
2023/07/02 03:46:00;;;;;;;;;;;;;;;14.97;90.08;100848.81;5104978;28;19916;-46
2023/07/02 03:48:26;;;;;;;;;;;;;;;14.99;90.77;100856.63;5104488;28;20003;-48
2023/07/02 03:50:51;;;;;;;;;;;;;;;14.98;90.21;100858.31;5105910;28;19915;-47
2023/07/02 03:53:16;;;;;;;;;;;;;;;14.96;89.94;100857.47;5101888;28;19916;-45
2023/07/02 03:55:41;;;;;;;;;;;;;;;14.95;90.63;100854.84;5105503;28;20010;-47
2023/07/02 03:58:07;;;;;;;;;;;;;;;14.96;91.00;100856.59;5101209;28;19951;-45
2023/07/02 04:00:32;;;;;;;;;;;;;;;14.94;90.49;100855.72;5104292;28;19941;-47
2023/07/02 04:02:58;;;;;;;;;;;;;;;14.91;90.06;100851.34;5101059;28;19920;-48
2023/07/02 04:05:23;;;;;;;;;;;;;;;14.90;90.17;100859.97;5102426;28;20275;-44
2023/07/02 04:07:48;;;;;;;;;;;;;;;14.90;90.00;100859.13;5102143;28;19916;-43
2023/07/02 04:10:13;;;;;;;;;;;;;;;14.88;90.84;100859.09;5103016;28;19973;-45
2023/07/02 04:12:39;;;;;;;;;;;;;;;14.88;90.28;100858.25;5104078;28;19916;-45
2023/07/02 04:15:05;;;;;;;;;;;;;;;14.87;90.20;100856.50;5105286;28;20351;-44
2023/07/02 04:17:30;;;;;;;;;;;;;;;14.88;90.20;100858.25;5107012;28;19987;-45
2023/07/02 04:19:55;;;;;;;;;;;;;;;14.88;90.30;100853.94;5104962;28;20050;-44
2023/07/02 04:22:21;;;;;;;;;;;;;;;14.88;91.29;100861.69;5105821;28;19951;-44
2023/07/02 04:24:48;;;;;;;;;;;;;;;14.92;92.04;100857.41;5085804;28;19966;-43
2023/07/02 04:27:14;;;;;;;;;;;;;;;15.18;92.53;100868.91;5099036;28;19970;-44
2023/07/02 04:29:39;;;;;;;;;;;;;;;15.63;91.85;100874.47;5109312;28;20329;-45
2023/07/02 04:32:04;;;;;;;;;;;;;;;15.96;89.71;100871.28;5097415;28;19928;-47
2023/07/02 04:34:30;;;;;;;;;;;;;;;16.06;89.62;100878.22;5106132;28;20235;-44
2023/07/02 04:36:55;;;;;;;;;;;;;;;16.35;88.96;100881.84;5069261;28;20070;-44
2023/07/02 04:39:20;;;;;;;;;;;;;;;16.65;86.77;100884.56;5102159;28;19965;-44
2023/07/02 04:41:45;;;;;;;;;;;;;;;16.93;86.41;100881.22;5086039;28;19916;-44
2023/07/02 04:44:11;;;;;;;;;;;;;;;17.27;85.56;100889.06;5101316;28;20006;-44
2023/07/02 04:46:36;;;;;;;;;;;;;;;17.41;85.65;100889.94;5097148;28;19912;-46
2023/07/02 04:49:01;;;;;;;;;;;;;;;17.63;83.20;100889.06;5103369;28;20363;-44
2023/07/02 04:51:27;;;;;;;;;;;;;;;17.66;80.92;100886.50;5097829;28;19922;-49
2023/07/02 04:53:52;;;;;;;;;;;;;;;17.46;80.76;100896.00;5099362;28;19916;-59
2023/07/02 04:56:17;;;;;;;;;;;;;;;17.21;83.31;100899.44;5095880;28;19916;-60
2023/07/02 04:58:42;;;;;;;;;;;;;;;16.96;81.85;100908.94;5098077;28;19916;-58
2023/07/02 05:01:08;;;;;;;;;;;;;;;16.88;80.70;100907.19;5095256;28;19915;-59
2023/07/02 05:03:33;;;;;;;;;;;;;;;16.82;81.41;100903.72;5104700;28;20250;-58
2023/07/02 05:05:58;;;;;;;;;;;;;;;16.82;81.79;100906.31;5104660;28;19920;-58
2023/07/02 05:08:23;;;;;;;;;;;;;;;16.74;82.56;100906.25;5095858;28;20424;-58
2023/07/02 05:10:49;;;;;;;;;;;;;;;16.66;83.34;100907.06;5091096;28;20305;-57
2023/07/02 05:13:14;;;;;;;;;;;;;;;16.61;80.48;100915.69;5094156;28;19920;-58
2023/07/02 05:15:39;;;;;;;;;;;;;;;16.54;81.56;100913.94;5099091;28;20278;-58
2023/07/02 05:18:06;;;;;;;;;;;;;;;16.46;79.53;100920.84;5075821;28;20094;-58
2023/07/02 05:20:31;;;;;;;;;;;;;;;16.43;80.46;100919.94;5095204;28;19960;-58
2023/07/02 05:22:57;;;;;;;;;;;;;;;16.38;78.68;100925.13;5087474;28;19924;-58
2023/07/02 05:25:22;;;;;;;;;;;;;;;16.34;78.79;100925.97;5085413;28;19916;-46
2023/07/02 05:27:47;;;;;;;;;;;;;;;16.33;79.73;100929.41;5109118;28;19980;-48
2023/07/02 05:30:13;;;;;;;;;;;;;;;16.39;79.74;100932.03;5107395;28;19919;-45
2023/07/02 05:32:39;;;;;;;;;;;;;;;16.55;78.16;100939.03;5098100;28;19959;-46
2023/07/02 05:35:04;;;;;;;;;;;;;;;16.74;78.25;100934.81;5110336;27;19924;-45
2023/07/02 05:37:30;;;;;;;;;;;;;;;16.81;77.83;100933.13;5100027;27;19923;-45
2023/07/02 05:39:55;;;;;;;;;;;;;;;16.87;75.70;100939.22;5110990;27;19916;-48
2023/07/02 05:42:20;;;;;;;;;;;;;;;17.04;79.27;100936.66;5106459;28;19919;-46
2023/07/02 05:44:45;;;;;;;;;;;;;;;17.16;76.09;100947.06;5101622;28;20031;-47
2023/07/02 05:47:10;;;;;;;;;;;;;;;17.21;77.36;100949.69;5100097;28;19915;-47
2023/07/02 05:49:36;;;;;;;;;;;;;;;17.24;78.28;100951.44;5109795;27;19923;-49
2023/07/02 05:52:01;;;;;;;;;;;;;;;17.25;76.90;100942.78;5103820;27;19916;-47
2023/07/02 05:54:26;;;;;;;;;;;;;;;17.32;75.45;100947.97;5099405;28;19969;-47
2023/07/02 05:56:51;;;;;;;;;;;;;;;17.34;74.61;100946.25;5110527;28;20006;-47
2023/07/02 05:59:18;;;;;;;;;;;;;;;17.35;73.93;100947.09;5109145;28;20002;-46
2023/07/02 06:01:44;;;;;;;;;;;;;;;17.27;73.54;100948.84;5103865;27;19916;-57
2023/07/02 06:04:09;;;;;;;;;;;;;;;17.24;73.08;100954.03;5115310;27;19977;-58
2023/07/02 06:06:34;;;;;;;;;;;;;;;17.21;74.24;100960.09;5088873;28;19964;-57
2023/07/02 06:08:59;;;;;;;;;;;;;;;17.26;73.58;100970.50;5097419;28;19927;-57
2023/07/02 06:11:25;;;;;;;;;;;;;;;17.24;75.89;100964.44;5109868;27;20377;-58
2023/07/02 06:13:50;;;;;;;;;;;;;;;17.28;74.67;100966.16;5112244;27;20388;-59
2023/07/02 06:16:15;;;;;;;;;;;;;;;17.38;73.37;100962.72;5097454;28;20358;-58
2023/07/02 06:18:41;;;;;;;;;;;;;;;17.38;71.74;100973.13;5098493;28;19916;-59
2023/07/02 06:21:06;;;;;;;;;;;;;;;17.29;71.04;100976.59;5110687;27;20006;-58
2023/07/02 06:23:39;;;;;;;;;;;;;;;17.31;70.48;100977.44;5100483;27;19916;-58
2023/07/02 06:26:04;;;;;;;;;;;;;;;17.34;73.50;100971.38;5096524;28;19916;-58
2023/07/02 06:28:30;;;;;;;;;;;;;;;17.40;72.66;100985.25;5105591;28;19927;-58
2023/07/02 06:30:55;;;;;;;;;;;;;;;17.41;70.82;100983.50;5107053;27;19915;-59
2023/07/02 06:33:20;;;;;;;;;;;;;;;17.52;70.15;100983.53;5110077;27;19935;-59
2023/07/02 06:35:45;;;;;;;;;;;;;;;17.55;70.32;100984.41;5106276;27;19923;-57
2023/07/02 06:38:11;;;;;;;;;;;;;;;17.59;71.13;100977.47;5109045;28;19955;-58
2023/07/02 06:40:36;;;;;;;;;;;;;;;17.69;71.40;100982.69;5110757;27;19922;-56
2023/07/02 06:43:01;;;;;;;;;;;;;;;17.83;70.96;100974.06;5107625;28;20386;-58
2023/07/02 06:45:26;;;;;;;;;;;;;;;17.80;69.92;100982.72;5111613;27;20297;-58
2023/07/02 06:47:52;;;;;;;;;;;;;;;17.85;70.85;100982.75;5107917;27;19916;-57
2023/07/02 06:50:17;;;;;;;;;;;;;;;17.93;69.21;100992.28;5108566;27;20059;-58
2023/07/02 06:52:42;;;;;;;;;;;;;;;17.90;68.18;100994.88;5106058;27;19923;-58
2023/07/02 06:55:08;;;;;;;;;;;;;;;17.98;67.52;100996.63;5106123;27;19926;-57
2023/07/02 06:57:33;;;;;;;;;;;;;;;17.97;66.51;101003.56;5108473;27;19916;-57
2023/07/02 06:59:59;;;;;;;;;;;;;;;18.00;67.47;101006.13;5110057;27;20473;-58
2023/07/02 07:02:24;;;;;;;;;;;;;;;17.87;66.42;101004.41;5109950;27;19915;-59
2023/07/02 07:04:49;;;;;;;;;;;;;;;17.87;65.66;101007.00;5110649;27;20007;-57
2023/07/02 07:07:15;;;;;;;;;;;;;;;18.00;66.13;101015.69;5109377;28;19919;-58
2023/07/02 07:09:40;;;;;;;;;;;;;;;17.89;65.77;101013.06;5107819;28;19920;-58
2023/07/02 07:12:05;;;;;;;;;;;;;;;17.94;67.06;101013.94;5090770;28;20001;-58
2023/07/02 07:14:31;;;;;;;;;;;;;;;18.04;68.00;101018.28;5107068;28;19977;-57
2023/07/02 07:16:56;;;;;;;;;;;;;;;18.01;65.65;101023.47;5102767;28;20267;-57
2023/07/02 07:19:21;;;;;;;;;;;;;;;18.14;66.85;101022.63;5103424;28;19916;-60
2023/07/02 07:21:46;;;;;;;;;;;;;;;18.27;66.25;101030.44;5101756;28;20003;-60
2023/07/02 07:24:12;;;;;;;;;;;;;;;18.33;63.38;101022.63;5100041;28;20350;-59
2023/07/02 07:26:37;;;;;;;;;;;;;;;18.33;63.22;101027.84;5099189;28;19923;-60
2023/07/02 07:29:03;;;;;;;;;;;;;;;18.41;64.64;101029.53;5084546;28;19920;-58
2023/07/02 07:31:29;;;;;;;;;;;;;;;18.47;62.87;101033.88;5105973;28;19939;-59
2023/07/02 07:33:54;;;;;;;;;;;;;;;18.56;61.76;101043.41;5102486;28;20369;-58
2023/07/02 07:36:19;;;;;;;;;;;;;;;18.61;63.87;101042.50;5106216;28;20282;-58
2023/07/02 07:38:44;;;;;;;;;;;;;;;18.69;62.13;101050.38;5106121;28;19942;-60
2023/07/02 07:41:09;;;;;;;;;;;;;;;18.76;61.23;101046.88;5109563;28;19919;-59
2023/07/02 07:43:35;;;;;;;;;;;;;;;18.89;62.04;101055.53;5112853;28;19974;-58
2023/07/02 07:46:00;;;;;;;;;;;;;;;18.94;59.78;101064.19;5112334;28;20036;-58
2023/07/02 07:48:25;;;;;;;;;;;;;;;18.86;63.05;101064.19;5110689;28;20301;-59
2023/07/02 07:50:51;;;;;;;;;;;;;;;18.82;61.97;101059.03;5108061;28;19923;-59
2023/07/02 07:53:16;;;;;;;;;;;;;;;18.89;63.84;101052.91;5106959;28;19916;-58
2023/07/02 07:55:41;;;;;;;;;;;;;;;18.91;61.06;101058.97;5109827;28;19969;-59
2023/07/02 07:58:07;;;;;;;;;;;;;;;18.91;61.03;101062.44;5110533;28;19916;-58
2023/07/02 08:00:32;;;;;;;;;;;;;;;18.97;59.19;101061.56;5115895;27;20376;-58
2023/07/02 08:02:59;;;;;;;;;;;;;;;18.86;59.50;101058.13;5117009;27;19916;-59
2023/07/02 08:05:24;;;;;;;;;;;;;;;18.85;59.87;101069.41;5116944;27;20436;-60
2023/07/02 08:07:50;;;;;;;;;;;;;;;18.78;57.29;101065.97;5113516;27;19915;-59
2023/07/02 08:10:15;;;;;;;;;;;;;;;18.75;58.13;101072.06;5112716;27;20018;-59
2023/07/02 08:12:40;;;;;;;;;;;;;;;18.78;57.60;101063.34;5110118;28;19974;-59
2023/07/02 08:15:06;;;;;;;;;;;;;;;18.92;59.87;101074.59;5106435;27;19923;-58
2023/07/02 08:17:31;;;;;;;;;;;;;;;18.99;58.76;101075.47;5087612;27;20362;-58
2023/07/02 08:19:57;;;;;;;;;;;;;;;19.20;59.31;101069.31;5107402;27;20470;-58
2023/07/02 08:22:22;;;;;;;;;;;;;;;19.47;58.89;101078.72;5103635;27;19965;-58
2023/07/02 08:24:49;;;;;;;;;;;;;;;19.48;58.63;101081.34;5105065;27;19916;-43
2023/07/02 08:27:16;;;;;;;;;;;;;;;19.39;53.50;101083.13;5104682;27;19950;-45
2023/07/02 08:29:41;;;;;;;;;;;;;;;19.33;53.31;101090.97;5112320;27;20442;-47
2023/07/02 08:32:06;;;;;;;;;;;;;;;19.33;53.51;101089.22;5103769;28;20019;-45
2023/07/02 08:34:31;;;;;;;;;;;;;;;19.25;52.59;101089.28;5098361;28;20386;-46
2023/07/02 08:36:57;;;;;;;;;;;;;;;19.21;56.34;101082.31;5098567;28;19923;-47
2023/07/02 08:39:22;;;;;;;;;;;;;;;19.10;53.77;101094.53;5100039;28;19919;-46
2023/07/02 08:41:48;;;;;;;;;;;;;;;19.18;53.74;101099.72;5099660;28;19974;-44
2023/07/02 08:44:13;;;;;;;;;;;;;;;19.11;53.39;101085.84;5105033;28;19927;-44
2023/07/02 08:46:39;;;;;;;;;;;;;;;19.17;51.31;101091.06;5106563;28;20088;-43
2023/07/02 08:49:04;;;;;;;;;;;;;;;19.25;52.89;101098.84;5101621;28;19928;-46
2023/07/02 08:51:30;;;;;;;;;;;;;;;19.38;52.39;101094.44;5097515;28;19916;-46
2023/07/02 08:53:55;;;;;;;;;;;;;;;19.41;51.94;101100.47;5096678;28;20346;-48
2023/07/02 08:56:20;;;;;;;;;;;;;;;19.42;55.22;101088.34;5095195;28;19966;-47
2023/07/02 08:58:45;;;;;;;;;;;;;;;19.75;53.45;101092.53;5096883;28;19939;-43
2023/07/02 09:01:12;;;;;;;;;;;;;;;20.13;51.62;101081.81;5093967;28;19923;-45
2023/07/02 09:03:38;;;;;;;;;;;;;;;20.55;49.56;101075.38;5096426;28;19919;-44
2023/07/02 09:06:10;;;;;;;;;;;;;;;20.83;50.10;101082.97;5093982;28;19961;-46
2023/07/02 09:08:36;;;;;;;;;;;;;;;20.75;49.60;101087.38;5095170;28;20302;-45
2023/07/02 09:11:07;;;;;;;;;;;;;;;20.41;49.32;101092.03;5100685;28;19919;-44
2023/07/02 09:13:41;;;;;;;;;;;;;;;20.02;50.69;101094.06;5101824;28;20328;-47
2023/07/02 09:16:06;;;;;;;;;;;;;;;19.86;52.85;101092.47;5095225;28;19955;-45
2023/07/02 09:18:32;;;;;;;;;;;;;;;20.03;52.69;101101.06;5102801;28;20345;-47
2023/07/02 09:20:57;;;;;;;;;;;;;;;20.10;50.18;101097.50;5096151;28;19916;-45
2023/07/02 09:23:22;;;;;;;;;;;;;;;19.87;52.58;101097.66;5103081;28;19922;-45
2023/07/02 09:25:47;;;;;;;;;;;;;;;19.70;52.50;101095.16;5087615;28;20025;-44
2023/07/02 09:28:25;;;;;;;;;;;;;;;19.80;53.40;101088.16;5099915;28;19964;-45
2023/07/02 09:30:50;;;;;;;;;;;;;;;20.16;52.75;101084.41;5091395;28;19966;-44
2023/07/02 09:33:15;;;;;;;;;;;;;;;20.31;50.68;101089.50;5096730;28;20320;-44
2023/07/02 09:35:40;;;;;;;;;;;;;;;20.30;50.75;101079.94;5086937;28;19921;-44
2023/07/02 09:38:06;;;;;;;;;;;;;;;20.30;49.58;101081.69;5093702;28;20363;-48
2023/07/02 09:40:31;;;;;;;;;;;;;;;20.30;52.54;101074.72;5085306;28;20338;-47
2023/07/02 09:42:57;;;;;;;;;;;;;;;20.48;50.86;101076.31;5086011;28;19917;-46
2023/07/02 09:45:23;;;;;;;;;;;;;;;20.61;51.33;101074.47;5089307;28;19977;-45
2023/07/02 09:47:49;;;;;;;;;;;;;;;20.72;50.10;101076.97;5101895;28;19916;-47
2023/07/02 09:50:15;;;;;;;;;;;;;;;20.72;50.80;101077.84;5092931;28;19916;-44
2023/07/02 09:52:41;;;;;;;;;;;;;;;20.60;50.22;101089.28;5098862;28;20026;-47
2023/07/02 09:55:07;;;;;;;;;;;;;;;20.38;49.38;101092.06;5091296;28;19923;-45
2023/07/02 09:57:33;;;;;;;;;;;;;;;20.07;51.24;101092.31;5084335;28;19938;-45
2023/07/02 09:59:59;;;;;;;;;;;;;;;19.95;52.15;101102.81;5104215;28;20333;-45
2023/07/02 10:02:25;;;;;;;;;;;;;;;19.78;51.37;101100.34;5101327;28;19916;-46
2023/07/02 10:04:54;;;;;;;;;;;;;;;19.80;52.60;101106.41;5104627;28;20274;-47
2023/07/02 10:07:27;;;;;;;;;;;;;;;19.98;53.40;101108.03;5086023;28;19924;-48
2023/07/02 10:09:52;;;;;;;;;;;;;;;20.23;52.94;101099.16;5105372;28;19919;-44
2023/07/02 10:12:18;;;;;;;;;;;;;;;20.39;51.77;101109.47;5099062;28;20002;-45
2023/07/02 10:14:44;;;;;;;;;;;;;;;20.23;51.29;101108.72;5089789;28;19942;-45
2023/07/02 10:17:09;;;;;;;;;;;;;;;20.05;51.09;101112.34;5086795;28;19923;-48
2023/07/02 10:19:35;;;;;;;;;;;;;;;19.78;50.59;101119.47;5096051;28;20015;-45
2023/07/02 10:22:03;;;;;;;;;;;;;;;19.51;51.32;101127.41;5091896;28;19916;-46
2023/07/02 10:24:28;;;;;;;;;;;;;;;19.31;51.75;101124.03;5089628;28;20383;-47
2023/07/02 10:26:55;;;;;;;;;;;;;;;19.27;52.54;101129.22;5070756;28;19935;-47
2023/07/02 10:29:22;;;;;;;;;;;;;;;19.16;50.99;101123.19;5092678;28;20262;-46
2023/07/02 10:31:48;;;;;;;;;;;;;;;19.24;52.87;101124.03;5086519;28;19913;-46
2023/07/02 10:34:13;;;;;;;;;;;;;;;19.48;51.62;101127.44;5084917;28;19912;-44
2023/07/02 10:36:38;;;;;;;;;;;;;;;19.62;51.92;101128.25;5092283;28;20470;-45
2023/07/02 10:39:05;;;;;;;;;;;;;;;19.72;51.86;101121.25;5062525;28;19917;-46
2023/07/02 10:41:30;;;;;;;;;;;;;;;19.88;51.65;101124.63;5091982;28;19920;-43
2023/07/02 10:44:15;;;;;;;;;;;;;;;19.97;50.84;101121.97;5086081;28;19942;-46
2023/07/02 10:46:47;;;;;;;;;;;;;;;20.03;50.51;101132.38;5081627;28;20009;-45
2023/07/02 10:49:13;;;;;;;;;;;;;;;20.05;50.65;101128.88;5098278;28;19920;-45
2023/07/02 10:51:38;;;;;;;;;;;;;;;20.12;50.92;101121.00;5091516;28;19923;-44
2023/07/02 10:54:05;;;;;;;;;;;;;;;20.38;50.02;101126.00;5090354;28;19963;-48
2023/07/02 10:56:30;;;;;;;;;;;;;;;20.50;49.95;101132.03;5090293;28;19912;-48
2023/07/02 10:58:56;;;;;;;;;;;;;;;20.48;51.14;101131.19;5078285;28;19916;-45
2023/07/02 11:01:21;;;;;;;;;;;;;;;20.42;50.68;101122.50;5067176;28;19931;-48
2023/07/02 11:03:55;;;;;;;;;;;;;;;20.24;50.37;101129.59;5086061;28;19916;-44
2023/07/02 11:06:20;;;;;;;;;;;;;;;20.17;51.43;101133.13;5075035;28;20818;-46
2023/07/02 11:08:45;;;;;;;;;;;;;;;20.12;51.95;101128.81;5082078;28;19924;-48
2023/07/02 11:11:10;;;;;;;;;;;;;;;20.09;52.08;101138.41;5093216;28;19923;-46
2023/07/02 11:13:44;;;;;;;;;;;;;;;20.14;52.30;101133.16;5086617;28;19912;-46
2023/07/02 11:16:29;;;;;;;;;;;;;;;20.12;51.83;101126.22;5089039;28;19920;-45
2023/07/02 11:19:08;;;;;;;;;;;;;;;20.08;50.98;101136.69;5061279;28;19961;-45
2023/07/02 11:21:33;;;;;;;;;;;;;;;20.24;51.58;101133.97;5089470;28;19920;-46
2023/07/02 11:24:06;;;;;;;;;;;;;;;20.44;49.54;101126.81;5077582;28;20007;-58
2023/07/02 11:26:41;;;;;;;;;;;;;;;20.52;50.11;101126.81;5082896;28;19916;-58
2023/07/02 11:29:12;;;;;;;;;;;;;;;20.84;49.74;101118.66;5089110;28;20374;-58
2023/07/02 11:31:37;;;;;;;;;;;;;;;21.19;50.82;101125.25;5086213;28;19955;-58
2023/07/02 11:34:11;;;;;;;;;;;;;;;21.68;48.31;101134.25;5091529;28;19963;-59
2023/07/02 11:36:36;;;;;;;;;;;;;;;21.82;49.01;101125.34;5104118;28;19916;-45
2023/07/02 11:39:02;;;;;;;;;;;;;;;21.88;47.89;101133.09;5083146;28;19985;-47
2023/07/02 11:41:36;;;;;;;;;;;;;;;21.93;49.08;101120.81;5101134;28;19916;-46
2023/07/02 11:44:01;;;;;;;;;;;;;;;22.02;46.63;101117.19;5098247;28;19947;-48
2023/07/02 11:46:26;;;;;;;;;;;;;;;21.80;46.28;101114.03;5097956;28;19916;-46
2023/07/02 11:48:51;;;;;;;;;;;;;;;21.68;47.62;101125.53;5096796;28;19980;-46
2023/07/02 11:51:17;;;;;;;;;;;;;;;21.48;48.39;101132.78;5102326;28;19916;-45
2023/07/02 11:53:42;;;;;;;;;;;;;;;21.29;48.15;101122.53;5096668;28;19924;-44
2023/07/02 11:56:08;;;;;;;;;;;;;;;21.25;49.68;101126.06;5096582;28;19920;-45
2023/07/02 11:58:33;;;;;;;;;;;;;;;21.27;49.62;101119.03;5101682;28;19927;-48
2023/07/02 12:00:58;;;;;;;;;;;;;;;21.16;48.10;101119.16;5082221;28;19969;-44
2023/07/02 12:03:23;;;;;;;;;;;;;;;21.23;48.74;101122.56;5097115;28;19920;-45
2023/07/02 12:05:49;;;;;;;;;;;;;;;21.26;45.53;101114.72;5098083;28;19969;-44
2023/07/02 12:08:14;;;;;;;;;;;;;;;21.52;44.35;101124.00;5096648;28;19920;-48
2023/07/02 12:10:40;;;;;;;;;;;;;;;21.93;44.80;101116.44;5103216;28;19960;-47
2023/07/02 12:13:05;;;;;;;;;;;;;;;22.30;44.36;101121.16;5097662;28;19916;-57
2023/07/02 12:15:30;;;;;;;;;;;;;;;22.33;44.64;101123.75;5104291;28;19997;-58
2023/07/02 12:17:55;;;;;;;;;;;;;;;22.16;43.03;101128.38;5099028;28;20007;-58
2023/07/02 12:20:21;;;;;;;;;;;;;;;21.93;40.56;101123.44;5104664;28;19916;-57
2023/07/02 12:22:46;;;;;;;;;;;;;;;21.58;40.97;101126.53;5102577;28;20473;-57
2023/07/02 12:25:11;;;;;;;;;;;;;;;21.38;42.46;101126.81;5098889;28;19985;-58
2023/07/02 12:27:37;;;;;;;;;;;;;;;21.26;42.21;101132.16;5094146;28;20367;-58
2023/07/02 12:30:02;;;;;;;;;;;;;;;21.29;43.45;101127.75;5093759;28;19916;-58